Time;durP1;ratioP1;P1;durP2;ratioP2;P2;SDS_P1;SDS_P2;PMS_P1;PMS_P2;Temp;Humidity;BMP_temperature;BMP_pressure;BME280_temperature;BME280_humidity;BME280_pressure;Samples;Min_cycle;Max_cycle;Signal;HPM_P1;HPM_P2
2022/03/14 00:00:42;;;;;;;21.00;11.70;;;;;;;7.18;58.74;96673.38;5031386;28;20045;-71
2022/03/14 00:03:10;;;;;;;20.23;10.75;;;;;;;7.26;59.15;96675.72;5030188;28;20106;-72
2022/03/14 00:05:35;;;;;;;18.50;10.60;;;;;;;7.25;57.78;96674.09;5029817;28;20056;-72
2022/03/14 00:08:01;;;;;;;18.38;10.48;;;;;;;7.35;64.40;96679.72;5031229;28;20056;-75
2022/03/14 00:10:28;;;;;;;17.00;10.35;;;;;;;7.49;66.31;96678.53;5032938;28;20112;-71
2022/03/14 00:12:55;;;;;;;18.38;10.43;;;;;;;7.47;68.27;96677.94;5031510;28;20030;-75
2022/03/14 00:15:21;;;;;;;15.77;9.88;;;;;;;7.58;67.19;96667.56;5029507;28;21027;-71
2022/03/14 00:17:47;;;;;;;17.67;10.35;;;;;;;7.67;73.12;96671.56;5030101;28;20123;-71
2022/03/14 00:20:14;;;;;;;19.63;9.13;;;;;;;7.60;77.11;96681.47;5028741;28;20559;-71
2022/03/14 00:22:41;;;;;;;17.48;10.35;;;;;;;7.46;68.35;96694.13;5030202;28;20040;-76
2022/03/14 00:25:08;;;;;;;17.98;10.50;;;;;;;7.40;76.20;96705.69;5031489;28;20034;-73
2022/03/14 00:27:35;;;;;;;19.77;10.98;;;;;;;7.44;71.03;96699.69;5032488;28;20472;-74
2022/03/14 00:30:07;;;;;;;20.42;11.55;;;;;;;7.59;82.38;96701.16;5033350;28;20028;-75
2022/03/14 00:32:33;;;;;;;17.75;10.85;;;;;;;7.50;98.37;96703.31;5028327;28;20045;-72
2022/03/14 00:34:58;;;;;;;23.27;11.50;;;;;;;7.34;89.23;96714.56;5031559;28;20032;-75
2022/03/14 00:37:26;;;;;;;19.52;11.00;;;;;;;7.29;90.33;96712.53;5035263;28;20065;-71
2022/03/14 00:39:53;;;;;;;19.50;10.35;;;;;;;7.29;86.44;96711.72;5030307;28;20260;-73
2022/03/14 00:42:21;;;;;;;17.20;10.57;;;;;;;7.18;97.33;96710.63;5030179;28;20454;-75
2022/03/14 00:44:51;;;;;;;23.05;11.30;;;;;;;7.32;86.72;96706.78;5030940;28;20052;-74
2022/03/14 00:47:18;;;;;;;21.92;11.50;;;;;;;7.42;83.26;96703.59;5029244;28;20034;-73
2022/03/14 00:49:45;;;;;;;25.60;12.95;;;;;;;7.37;86.02;96716.75;5030073;28;20034;-72
2022/03/14 00:52:12;;;;;;;24.55;12.00;;;;;;;7.33;85.54;96720.91;5030395;28;20041;-76
2022/03/14 00:54:42;;;;;;;20.33;11.40;;;;;;;7.40;90.57;96713.69;5030024;28;20808;-74
2022/03/14 00:57:08;;;;;;;23.45;11.52;;;;;;;7.30;92.52;96705.38;5028135;28;20036;-71
2022/03/14 00:59:34;;;;;;;28.27;13.52;;;;;;;7.30;96.96;96708.84;5029058;28;20591;-75
2022/03/14 01:01:59;;;;;;;25.98;13.55;;;;;;;7.33;98.18;96710.28;5031826;28;20056;-73
2022/03/14 01:04:26;;;;;;;24.98;12.40;;;;;;;7.16;100.00;96712.66;5028619;28;20115;-74
2022/03/14 01:06:52;;;;;;;19.60;12.00;;;;;;;7.24;100.00;96715.06;5029504;28;20029;-75
2022/03/14 01:09:17;;;;;;;19.25;12.23;;;;;;;7.26;100.00;96710.34;5029161;28;20078;-73
2022/03/14 01:11:44;;;;;;;20.45;12.30;;;;;;;7.24;100.00;96707.91;5029471;28;20038;-71
2022/03/14 01:14:11;;;;;;;19.95;12.38;;;;;;;7.29;100.00;96698.41;5029507;28;20136;-71
2022/03/14 01:16:37;;;;;;;22.13;12.38;;;;;;;7.27;100.00;96706.63;5031168;28;20033;-71
2022/03/14 01:19:04;;;;;;;23.65;13.40;;;;;;;7.25;100.00;96700.72;5028196;28;20064;-74
2022/03/14 01:21:30;;;;;;;22.67;12.43;;;;;;;6.99;100.00;96712.44;5029346;28;20034;-72
2022/03/14 01:23:56;;;;;;;21.15;12.93;;;;;;;6.81;100.00;96713.22;5029380;28;20075;-74
2022/03/14 01:26:21;;;;;;;21.20;13.30;;;;;;;6.82;100.00;96722.00;5029117;28;20123;-72
2022/03/14 01:28:48;;;;;;;24.23;13.13;;;;;;;6.67;100.00;96714.34;5029411;28;20468;-71
2022/03/14 01:31:14;;;;;;;23.85;13.75;;;;;;;6.64;100.00;96722.78;5029241;28;20130;-71
2022/03/14 01:33:40;;;;;;;23.15;13.13;;;;;;;6.76;100.00;96723.69;5031523;28;20119;-74
2022/03/14 01:36:08;;;;;;;22.67;13.73;;;;;;;6.85;100.00;96738.38;5026553;28;20041;-72
2022/03/14 01:38:33;;;;;;;24.00;14.10;;;;;;;6.91;100.00;96747.31;5027978;28;20051;-71
2022/03/14 01:40:59;;;;;;;25.30;13.75;;;;;;;6.70;100.00;96753.84;5026861;28;20423;-72
2022/03/14 01:43:26;;;;;;;29.40;14.13;;;;;;;6.51;100.00;96760.09;5027695;28;20045;-73
2022/03/14 01:45:58;;;;;;;24.45;13.60;;;;;;;6.49;100.00;96778.94;5028992;28;20037;-74
2022/03/14 01:48:25;;;;;;;25.85;12.63;;;;;;;6.44;100.00;96789.38;5026751;28;20041;-74
2022/03/14 01:50:51;;;;;;;22.73;11.48;;;;;;;6.46;100.00;96789.16;5028321;28;20534;-71
2022/03/14 01:53:20;;;;;;;19.98;11.38;;;;;;;6.58;100.00;96790.13;5026366;28;20480;-74
2022/03/14 01:55:48;;;;;;;17.67;10.20;;;;;;;6.58;100.00;96800.75;5030142;28;20127;-71
2022/03/14 01:58:14;;;;;;;15.40;8.68;;;;;;;6.52;100.00;96798.94;5026520;28;20043;-71
2022/03/14 02:00:41;;;;;;;13.57;8.15;;;;;;;6.46;100.00;96803.28;5030655;28;20388;-74
2022/03/14 02:03:07;;;;;;;14.40;7.85;;;;;;;6.40;100.00;96820.91;5028826;28;20037;-71
2022/03/14 02:05:37;;;;;;;17.02;8.07;;;;;;;6.29;100.00;96829.53;5028901;28;20484;-72
2022/03/14 02:08:05;;;;;;;12.13;7.22;;;;;;;6.25;100.00;96827.53;5028077;28;20049;-71
2022/03/14 02:10:30;;;;;;;18.20;8.50;;;;;;;6.36;100.00;96834.81;5030196;28;20060;-72
2022/03/14 02:12:56;;;;;;;13.68;6.93;;;;;;;6.39;100.00;96829.91;5029784;28;20640;-73
2022/03/14 02:15:22;;;;;;;12.82;7.93;;;;;;;6.36;100.00;96835.63;5029090;28;20522;-75
2022/03/14 02:17:48;;;;;;;17.92;7.32;;;;;;;6.29;100.00;96834.03;5025593;28;20472;-75
2022/03/14 02:20:14;;;;;;;11.18;6.88;;;;;;;6.24;100.00;96829.38;5027960;28;20047;-73
2022/03/14 02:22:39;;;;;;;13.18;7.85;;;;;;;6.19;100.00;96849.63;5028986;28;20459;-74
2022/03/14 02:25:11;;;;;;;9.48;6.47;;;;;;;6.31;100.00;96848.78;5028434;28;20033;-73
2022/03/14 02:27:38;;;;;;;13.57;7.28;;;;;;;6.42;100.00;96856.06;5029477;28;20033;-71
2022/03/14 02:30:04;;;;;;;10.73;6.38;;;;;;;6.40;100.00;96858.13;5025595;28;20041;-72
2022/03/14 02:32:31;;;;;;;12.73;6.75;;;;;;;6.51;100.00;96861.13;5010698;28;20042;-74
2022/03/14 02:34:56;;;;;;;11.60;5.85;;;;;;;6.60;100.00;96865.97;5009461;28;20034;-71
2022/03/14 02:37:22;;;;;;;8.63;4.78;;;;;;;6.62;100.00;96855.97;5007617;28;20042;-71
2022/03/14 02:39:47;;;;;;;10.93;5.70;;;;;;;6.67;100.00;96857.97;5007102;28;20136;-75
2022/03/14 02:42:13;;;;;;;10.90;5.72;;;;;;;6.71;100.00;96859.19;5008796;28;20120;-71
2022/03/14 02:44:42;;;;;;;8.55;5.68;;;;;;;6.73;100.00;96869.59;5009849;28;20026;-75
2022/03/14 02:47:08;;;;;;;10.18;6.25;;;;;;;6.70;100.00;96863.69;5006771;28;20038;-74
2022/03/14 02:49:34;;;;;;;10.68;6.20;;;;;;;6.75;100.00;96863.03;5007284;28;20038;-71
2022/03/14 02:52:00;;;;;;;11.80;6.20;;;;;;;6.81;100.00;96872.00;5008071;28;20029;-72
2022/03/14 02:54:26;;;;;;;12.90;7.00;;;;;;;6.85;100.00;96857.25;5006741;28;20631;-71
2022/03/14 02:56:52;;;;;;;14.63;6.75;;;;;;;6.84;100.00;96864.41;5007939;28;20046;-72
2022/03/14 02:59:19;;;;;;;13.10;6.82;;;;;;;6.88;100.00;96878.09;5006890;28;20026;-71
2022/03/14 03:01:45;;;;;;;9.75;6.00;;;;;;;6.86;100.00;96886.31;5020458;28;20084;-72
2022/03/14 03:04:10;;;;;;;10.93;6.78;;;;;;;6.82;100.00;96890.41;5027199;28;20549;-72
2022/03/14 03:06:36;;;;;;;15.00;7.13;;;;;;;6.84;100.00;96883.03;5026515;28;20480;-72
2022/03/14 03:09:03;;;;;;;12.05;6.35;;;;;;;6.77;100.00;96897.38;5026338;28;20033;-74
2022/03/14 03:11:29;;;;;;;12.15;6.38;;;;;;;6.76;100.00;96898.41;5029551;28;20382;-75
2022/03/14 03:13:56;;;;;;;12.02;5.90;;;;;;;6.72;100.00;96900.72;5027698;28;20606;-75
2022/03/14 03:16:22;;;;;;;8.38;5.53;;;;;;;6.62;100.00;96903.03;5028830;28;20136;-75
2022/03/14 03:18:48;;;;;;;8.45;5.03;;;;;;;6.72;100.00;96914.00;5026529;28;20025;-72
2022/03/14 03:21:14;;;;;;;7.05;4.25;;;;;;;6.53;100.00;96914.91;5026781;28;20039;-72
2022/03/14 03:23:40;;;;;;;7.28;4.47;;;;;;;6.38;100.00;96921.31;5027791;28;20464;-71
2022/03/14 03:26:06;;;;;;;10.90;4.75;;;;;;;6.47;100.00;96927.22;5026372;28;20496;-73
2022/03/14 03:28:38;;;;;;;7.88;4.18;;;;;;;6.46;100.00;96928.25;5027983;28;20048;-71
2022/03/14 03:31:04;;;;;;;6.75;3.80;;;;;;;6.24;100.00;96933.03;5027172;28;20058;-71
2022/03/14 03:33:29;;;;;;;5.75;3.13;;;;;;;6.27;100.00;96942.41;5027839;28;20404;-73
2022/03/14 03:35:55;;;;;;;6.50;3.10;;;;;;;6.27;100.00;96942.41;5028939;28;20033;-74
2022/03/14 03:38:20;;;;;;;7.32;3.60;;;;;;;6.41;100.00;96950.13;5028606;28;20454;-73
2022/03/14 03:40:46;;;;;;;5.55;2.70;;;;;;;6.26;100.00;96956.72;5032554;28;20076;-74
2022/03/14 03:43:11;;;;;;;6.78;3.42;;;;;;;6.18;100.00;96951.63;5030050;28;20196;-72
2022/03/14 03:45:37;;;;;;;5.18;2.72;;;;;;;6.18;100.00;96962.28;5033580;28;20049;-71
2022/03/14 03:48:02;;;;;;;4.90;2.65;;;;;;;6.29;100.00;96967.75;5028222;28;20498;-73
2022/03/14 03:50:28;;;;;;;2.97;1.38;;;;;;;6.14;100.00;96969.81;5028966;28;20134;-72
2022/03/14 03:52:53;;;;;;;7.38;2.90;;;;;;;6.07;100.00;96967.22;5032798;28;20143;-72
2022/03/14 03:55:19;;;;;;;6.25;2.78;;;;;;;6.16;100.00;96967.81;5028297;28;20057;-72
2022/03/14 03:57:45;;;;;;;4.25;2.03;;;;;;;6.09;100.00;96967.00;5034472;28;20049;-71
2022/03/14 04:00:12;;;;;;;5.25;2.28;;;;;;;5.74;100.00;96969.84;5027485;28;20034;-73
2022/03/14 04:02:42;;;;;;;6.68;2.70;;;;;;;5.80;100.00;96978.84;5031764;28;20899;-75
2022/03/14 04:05:09;;;;;;;5.90;2.47;;;;;;;5.83;100.00;96979.25;5029715;28;20049;-74
2022/03/14 04:07:35;;;;;;;5.32;2.65;;;;;;;5.82;100.00;96990.88;5031008;28;20292;-72
2022/03/14 04:10:02;;;;;;;4.85;2.75;;;;;;;5.75;100.00;96979.44;5031829;28;20049;-76
2022/03/14 04:12:28;;;;;;;4.07;1.52;;;;;;;5.79;100.00;96990.50;5036006;28;20399;-74
2022/03/14 04:14:56;;;;;;;4.97;2.25;;;;;;;5.60;100.00;96992.13;5030688;28;20102;-76
2022/03/14 04:17:25;;;;;;;5.82;2.35;;;;;;;5.70;100.00;96997.03;5031356;28;20197;-71
2022/03/14 04:19:52;;;;;;;4.40;1.60;;;;;;;5.66;100.00;96991.31;5030340;28;20037;-73
2022/03/14 04:22:21;;;;;;;3.65;1.60;;;;;;;5.47;100.00;96997.44;5028644;28;20325;-72
2022/03/14 04:24:47;;;;;;;3.33;1.33;;;;;;;5.51;100.00;97002.13;5030614;28;20195;-74
2022/03/14 04:27:12;;;;;;;3.85;1.80;;;;;;;5.57;100.00;96995.19;5030449;28;20101;-71
2022/03/14 04:29:38;;;;;;;4.05;1.17;;;;;;;5.55;100.00;97000.72;5028776;28;20449;-71
2022/03/14 04:32:04;;;;;;;3.92;1.50;;;;;;;5.49;100.00;97001.50;5028046;28;20073;-72
2022/03/14 04:34:30;;;;;;;2.72;1.00;;;;;;;5.55;100.00;97006.00;5031243;28;20439;-72
2022/03/14 04:36:57;;;;;;;3.78;1.58;;;;;;;5.52;100.00;97013.56;5030561;28;20021;-71
2022/03/14 04:39:22;;;;;;;7.72;4.10;;;;;;;5.53;100.00;97008.06;5029606;28;20041;-76
2022/03/14 04:41:48;;;;;;;3.45;1.52;;;;;;;5.52;100.00;97008.25;5031738;28;20417;-71
2022/03/14 04:44:14;;;;;;;2.30;1.20;;;;;;;5.48;100.00;97009.69;5027810;28;20041;-72
2022/03/14 04:46:39;;;;;;;2.75;1.30;;;;;;;5.47;100.00;97016.03;5027918;28;20041;-73
2022/03/14 04:49:06;;;;;;;2.85;1.30;;;;;;;5.46;100.00;97020.50;5027435;28;20514;-71
2022/03/14 04:51:32;;;;;;;2.53;1.20;;;;;;;5.56;100.00;97025.41;5029420;28;20180;-75
2022/03/14 04:53:58;;;;;;;2.78;1.50;;;;;;;5.58;100.00;97024.19;5030216;28;20037;-72
2022/03/14 04:56:23;;;;;;;2.85;1.40;;;;;;;5.58;100.00;97023.38;5029318;28;20427;-75
2022/03/14 04:58:49;;;;;;;3.13;1.20;;;;;;;5.55;100.00;97032.56;5027192;28;20044;-74
2022/03/14 05:01:14;;;;;;;5.10;1.52;;;;;;;5.56;100.00;97028.06;5029687;28;20118;-72
2022/03/14 05:03:40;;;;;;;3.03;1.30;;;;;;;5.71;100.00;97033.19;5029082;28;20041;-72
2022/03/14 05:06:05;;;;;;;4.07;1.20;;;;;;;5.61;100.00;97033.59;5030847;28;20387;-76
2022/03/14 05:08:31;;;;;;;2.70;1.38;;;;;;;5.66;100.00;97038.28;5029288;28;20041;-71
2022/03/14 05:10:57;;;;;;;3.20;1.60;;;;;;;5.69;100.00;97037.91;5029953;28;20033;-71
2022/03/14 05:13:23;;;;;;;2.50;1.15;;;;;;;5.72;100.00;97035.63;5030512;28;20033;-73
2022/03/14 05:15:49;;;;;;;2.78;1.27;;;;;;;5.65;100.00;97041.97;5031305;28;20408;-74
2022/03/14 05:18:14;;;;;;;4.78;1.38;;;;;;;5.62;100.00;97040.53;5028636;28;20041;-73
2022/03/14 05:20:40;;;;;;;3.65;1.50;;;;;;;5.72;100.00;97035.63;5029507;28;20040;-73
2022/03/14 05:23:06;;;;;;;2.90;1.30;;;;;;;5.68;100.00;97039.75;5029840;28;20771;-71
2022/03/14 05:25:32;;;;;;;2.40;1.17;;;;;;;5.66;100.00;97038.28;5029257;28;20108;-71
2022/03/14 05:27:57;;;;;;;5.45;1.30;;;;;;;5.66;100.00;97055.03;5028158;28;20491;-73
2022/03/14 05:30:24;;;;;;;2.97;1.38;;;;;;;5.74;100.00;97054.00;5024299;28;20432;-72
2022/03/14 05:32:49;;;;;;;3.15;1.60;;;;;;;5.83;100.00;97055.44;5029818;28;20184;-72
2022/03/14 05:35:15;;;;;;;3.70;1.35;;;;;;;5.92;100.00;97058.78;5028373;28;20371;-71
2022/03/14 05:37:46;;;;;;;3.40;1.27;;;;;;;5.93;100.00;97055.91;5028425;28;20037;-72
2022/03/14 05:40:15;;;;;;;3.83;1.77;;;;;;;5.93;100.00;97068.38;5029795;28;20037;-76
2022/03/14 05:42:45;;;;;;;3.15;1.58;;;;;;;5.99;100.00;97071.03;5028647;28;20394;-71
2022/03/14 05:45:12;;;;;;;2.95;1.30;;;;;;;5.98;100.00;97072.03;5026883;28;20044;-71
2022/03/14 05:47:38;;;;;;;3.88;1.60;;;;;;;6.07;100.00;97080.63;5028942;28;20394;-74
2022/03/14 05:50:04;;;;;;;3.10;1.58;;;;;;;5.96;100.00;97084.72;5025756;28;20041;-71
2022/03/14 05:52:29;;;;;;;2.50;1.40;;;;;;;5.99;100.00;97084.31;5026873;28;20266;-72
2022/03/14 05:54:55;;;;;;;4.32;1.50;;;;;;;5.93;100.00;97087.78;5028094;28;20469;-74
2022/03/14 05:57:21;;;;;;;2.90;1.70;;;;;;;5.96;100.00;97095.34;5025515;28;21753;-74
2022/03/14 05:59:47;;;;;;;2.40;1.30;;;;;;;6.04;100.00;97102.28;5026574;28;20579;-75
2022/03/14 06:02:19;;;;;;;2.78;1.27;;;;;;;5.96;100.00;97098.00;5027504;28;20214;-74
2022/03/14 06:04:45;;;;;;;2.65;1.27;;;;;;;5.87;100.00;97097.34;5027602;28;20057;-72
2022/03/14 06:07:10;;;;;;;3.03;1.50;;;;;;;5.90;100.00;97103.25;5026794;28;20037;-73
2022/03/14 06:09:36;;;;;;;2.42;1.33;;;;;;;5.92;100.00;97104.75;5030337;28;20127;-71
2022/03/14 06:12:02;;;;;;;2.97;1.38;;;;;;;5.90;100.00;97105.94;5027953;28;20031;-76
2022/03/14 06:14:27;;;;;;;2.83;1.50;;;;;;;5.90;100.00;97104.09;5030099;28;20033;-74
2022/03/14 06:16:53;;;;;;;3.17;1.38;;;;;;;5.95;100.00;97100.84;5026938;28;20404;-72
2022/03/14 06:19:18;;;;;;;2.05;1.00;;;;;;;5.98;100.00;97122.50;5026134;28;20045;-75
2022/03/14 06:21:44;;;;;;;3.65;1.88;;;;;;;6.00;100.00;97125.00;5030730;28;20029;-72
2022/03/14 06:24:09;;;;;;;4.43;1.55;;;;;;;6.01;100.00;97138.06;5023108;28;20036;-75
2022/03/14 06:26:35;;;;;;;2.83;1.55;;;;;;;6.03;100.00;97141.31;5029317;28;20036;-73
2022/03/14 06:29:02;;;;;;;2.50;1.50;;;;;;;5.96;100.00;97143.16;5028680;28;20032;-72
2022/03/14 06:31:27;;;;;;;2.50;1.20;;;;;;;5.96;100.00;97148.47;5028933;28;20046;-73
2022/03/14 06:33:52;;;;;;;2.58;1.30;;;;;;;5.97;100.00;97159.91;5028573;28;20028;-75
2022/03/14 06:36:18;;;;;;;4.13;1.90;;;;;;;5.96;100.00;97156.44;5028119;28;20108;-74
2022/03/14 06:38:45;;;;;;;2.85;1.15;;;;;;;5.98;100.00;97158.88;5024623;28;20071;-74
2022/03/14 06:41:11;;;;;;;2.50;1.30;;;;;;;6.01;100.00;97163.81;5027438;28;20380;-72
2022/03/14 06:43:37;;;;;;;3.15;1.50;;;;;;;5.97;100.00;97165.22;5026249;28;20040;-72
2022/03/14 06:46:04;;;;;;;3.10;1.60;;;;;;;6.01;100.00;97174.44;5027473;28;20061;-72
2022/03/14 06:48:30;;;;;;;5.05;1.60;;;;;;;5.99;100.00;97166.69;5029029;28;20041;-72
2022/03/14 06:50:56;;;;;;;3.83;1.60;;;;;;;6.08;100.00;97167.31;5028405;28;20468;-72
2022/03/14 06:53:22;;;;;;;3.47;1.63;;;;;;;6.06;100.00;97172.78;5025646;28;20033;-72
2022/03/14 06:55:47;;;;;;;3.10;1.73;;;;;;;5.95;100.00;97177.91;5027478;28;20299;-72
2022/03/14 06:58:13;;;;;;;3.60;1.92;;;;;;;5.98;100.00;97185.47;5027548;28;20073;-75
2022/03/14 07:00:39;;;;;;;4.80;1.45;;;;;;;6.04;100.00;97180.16;5028016;28;20160;-74
2022/03/14 07:03:05;;;;;;;3.05;1.80;;;;;;;6.02;100.00;97192.03;5028567;28;20155;-72
2022/03/14 07:05:30;;;;;;;3.58;1.70;;;;;;;6.01;100.00;97193.03;5026079;28;20402;-72
2022/03/14 07:07:56;;;;;;;5.40;2.10;;;;;;;6.03;100.00;97196.31;5029952;28;20463;-75
2022/03/14 07:10:23;;;;;;;4.05;1.80;;;;;;;6.04;100.00;97197.94;5029694;28;20618;-74
2022/03/14 07:12:50;;;;;;;2.83;1.52;;;;;;;6.04;100.00;97200.59;5031609;28;20037;-72
2022/03/14 07:15:20;;;;;;;2.92;1.63;;;;;;;6.06;100.00;97194.06;5034274;28;20037;-72
2022/03/14 07:17:49;;;;;;;3.13;1.80;;;;;;;6.10;100.00;97197.97;5030799;28;20041;-73
2022/03/14 07:20:18;;;;;;;2.75;1.42;;;;;;;6.12;100.00;97201.22;5030269;28;20065;-72
2022/03/14 07:22:51;;;;;;;3.15;1.52;;;;;;;6.21;100.00;97214.31;5031586;28;20568;-72
2022/03/14 07:25:21;;;;;;;3.28;1.98;;;;;;;6.21;100.00;97211.66;5029178;28;20036;-72
2022/03/14 07:27:47;;;;;;;3.90;1.95;;;;;;;6.22;100.00;97215.94;5037136;28;21021;-72
2022/03/14 07:30:14;;;;;;;2.65;1.60;;;;;;;6.21;100.00;97225.75;5034932;28;20041;-74
2022/03/14 07:32:39;;;;;;;3.00;1.52;;;;;;;6.21;100.00;97219.63;5032045;28;20049;-72
2022/03/14 07:35:05;;;;;;;3.03;1.63;;;;;;;6.10;100.00;97223.72;5030369;28;20040;-74
2022/03/14 07:37:30;;;;;;;2.50;1.40;;;;;;;6.15;100.00;97229.25;5033027;28;20033;-72
2022/03/14 07:39:56;;;;;;;3.20;1.67;;;;;;;6.11;100.00;97233.31;5033033;28;20037;-72
2022/03/14 07:42:23;;;;;;;5.78;1.92;;;;;;;6.16;100.00;97238.03;5032042;28;20244;-73
2022/03/14 07:44:49;;;;;;;7.20;2.35;;;;;;;6.27;100.00;97237.44;5031792;28;20544;-72
2022/03/14 07:47:15;;;;;;;5.72;2.30;;;;;;;6.35;100.00;97242.56;5031628;28;20033;-74
2022/03/14 07:49:40;;;;;;;3.55;2.10;;;;;;;6.37;100.00;97241.31;5031326;28;20116;-71
2022/03/14 07:52:07;;;;;;;5.45;2.45;;;;;;;6.47;100.00;97242.78;5029846;28;20051;-71
2022/03/14 07:54:32;;;;;;;4.88;2.78;;;;;;;6.31;100.00;97250.13;5030515;28;20034;-72
2022/03/14 07:56:58;;;;;;;5.97;2.70;;;;;;;6.29;100.00;97256.66;5033548;28;20047;-72
2022/03/14 07:59:23;;;;;;;9.80;2.92;;;;;;;6.38;100.00;97253.63;5030100;28;20040;-74
2022/03/14 08:01:49;;;;;;;5.47;2.42;;;;;;;6.49;100.00;97259.34;5031551;28;20491;-74
2022/03/14 08:04:14;;;;;;;3.80;2.05;;;;;;;6.53;100.00;97258.72;5028571;28;20127;-71
2022/03/14 08:06:43;;;;;;;4.47;2.17;;;;;;;6.72;100.00;97262.44;5030298;28;20036;-71
2022/03/14 08:09:08;;;;;;;4.82;2.22;;;;;;;6.78;100.00;97263.47;5031454;28;20088;-74
2022/03/14 08:11:38;;;;;;;5.53;1.77;;;;;;;6.79;100.00;97268.59;5033145;28;20479;-71
2022/03/14 08:14:04;;;;;;;5.95;1.65;;;;;;;6.64;100.00;97267.97;5031962;28;20111;-74
2022/03/14 08:16:29;;;;;;;4.30;1.95;;;;;;;6.72;100.00;97264.28;5032551;28;20518;-73
2022/03/14 08:18:55;;;;;;;5.15;1.95;;;;;;;6.90;100.00;97275.13;5030589;28;20116;-70
2022/03/14 08:21:21;;;;;;;4.25;2.30;;;;;;;6.94;100.00;97282.50;5033123;28;20671;-71
2022/03/14 08:23:46;;;;;;;5.13;2.20;;;;;;;7.06;100.00;97280.03;5031198;28;20037;-74
2022/03/14 08:26:12;;;;;;;9.88;2.05;;;;;;;7.23;100.00;97288.38;5031554;28;20041;-71
2022/03/14 08:28:39;;;;;;;7.22;2.25;;;;;;;7.20;100.00;97296.81;5028662;28;20041;-74
2022/03/14 08:31:05;;;;;;;7.95;2.30;;;;;;;7.11;100.00;97295.38;5029756;28;20480;-71
2022/03/14 08:33:31;;;;;;;3.88;1.80;;;;;;;7.19;100.00;97297.84;5027897;28;20036;-72
2022/03/14 08:36:00;;;;;;;3.90;1.70;;;;;;;7.19;100.00;97303.97;5000237;28;20082;-71
2022/03/14 08:38:26;;;;;;;5.03;1.75;;;;;;;7.24;100.00;97308.69;5030042;28;20131;-71
2022/03/14 08:40:51;;;;;;;5.18;1.90;;;;;;;7.40;100.00;97308.25;5031131;28;20119;-71
2022/03/14 08:43:18;;;;;;;4.53;1.70;;;;;;;7.45;100.00;97316.41;5002322;28;20044;-72
2022/03/14 08:45:44;;;;;;;6.47;2.22;;;;;;;7.33;100.00;97319.94;5030564;28;20045;-74
2022/03/14 08:48:12;;;;;;;12.10;2.13;;;;;;;7.32;100.00;97316.47;5028653;28;20528;-71
2022/03/14 08:50:40;;;;;;;4.43;1.70;;;;;;;7.45;100.00;97316.41;5030644;28;20546;-71
2022/03/14 08:53:06;;;;;;;5.20;1.88;;;;;;;7.66;100.00;97310.03;5031770;28;20029;-74
2022/03/14 08:55:32;;;;;;;2.78;1.17;;;;;;;7.91;100.00;97328.00;5031692;28;20519;-74
2022/03/14 08:57:58;;;;;;;8.68;1.77;;;;;;;7.84;100.00;97338.66;5031383;28;20307;-71
2022/03/14 09:00:24;;;;;;;4.85;2.00;;;;;;;7.53;100.00;97336.69;5026862;28;20033;-72
2022/03/14 09:02:50;;;;;;;3.97;1.70;;;;;;;7.74;100.00;97336.44;5011388;28;20394;-74
2022/03/14 09:05:17;;;;;;;5.22;1.50;;;;;;;7.70;100.00;97337.88;5025657;28;20044;-73
2022/03/14 09:07:43;;;;;;;5.22;1.60;;;;;;;7.76;100.00;97350.38;5030635;28;20496;-73
2022/03/14 09:10:12;;;;;;;4.43;1.80;;;;;;;7.61;100.00;97351.63;5028504;28;20034;-71
2022/03/14 09:12:38;;;;;;;4.65;1.70;;;;;;;7.36;100.00;97364.78;5030668;28;20187;-74
2022/03/14 09:15:06;;;;;;;7.43;1.70;;;;;;;7.14;100.00;97359.66;5029874;28;20096;-71
2022/03/14 09:17:32;;;;;;;6.22;1.90;;;;;;;7.12;100.00;97369.69;5027982;28;20060;-73
2022/03/14 09:20:00;;;;;;;7.38;1.90;;;;;;;7.14;100.00;97366.81;5027300;28;20468;-72
2022/03/14 09:22:26;;;;;;;5.88;2.00;;;;;;;6.93;100.00;97381.16;5027011;28;20045;-72
2022/03/14 09:24:55;;;;;;;3.75;1.55;;;;;;;6.78;100.00;97370.69;5027213;28;20048;-74
2022/03/14 09:27:23;;;;;;;4.05;1.90;;;;;;;6.70;100.00;97385.00;5029447;28;20055;-73
2022/03/14 09:29:49;;;;;;;6.85;2.30;;;;;;;6.79;100.00;97372.34;5024820;28;20106;-74
2022/03/14 09:32:16;;;;;;;7.57;1.67;;;;;;;6.71;100.00;97385.81;5026215;28;20049;-71
2022/03/14 09:34:42;;;;;;;6.28;1.40;;;;;;;6.99;100.00;97389.13;5026451;28;20072;-72
2022/03/14 09:37:08;;;;;;;6.65;2.10;;;;;;;7.16;100.00;97386.06;5024952;28;20053;-72
2022/03/14 09:39:34;;;;;;;6.10;1.98;;;;;;;7.31;100.00;97391.19;5030836;28;20033;-74
2022/03/14 09:42:01;;;;;;;6.05;2.00;;;;;;;7.44;100.00;97384.03;5029336;28;20041;-71
2022/03/14 09:44:29;;;;;;;5.13;2.03;;;;;;;7.59;100.00;97388.31;5028678;28;20037;-74
2022/03/14 09:47:00;;;;;;;5.75;2.03;;;;;;;7.75;100.00;97393.22;5028363;28;20506;-72
2022/03/14 09:49:27;;;;;;;6.63;2.10;;;;;;;7.47;100.00;97399.59;5028788;28;20047;-75
2022/03/14 09:51:53;;;;;;;5.88;2.05;;;;;;;7.55;100.00;97398.59;5030914;28;20035;-72
2022/03/14 09:54:21;;;;;;;3.70;1.88;;;;;;;7.72;100.00;97404.28;5029639;28;20151;-73
2022/03/14 09:56:48;;;;;;;3.80;1.38;;;;;;;7.16;100.00;97410.03;5028494;28;20136;-72
2022/03/14 09:59:13;;;;;;;6.32;2.00;;;;;;;7.27;100.00;97422.75;5026100;28;20075;-72
2022/03/14 10:01:40;;;;;;;7.97;2.10;;;;;;;7.52;100.00;97404.31;5028282;28;20053;-72
2022/03/14 10:04:08;;;;;;;7.45;2.30;;;;;;;7.91;100.00;97408.75;5029507;28;20106;-73
2022/03/14 10:06:34;;;;;;;5.10;1.90;;;;;;;8.36;100.00;97408.88;5031260;28;20065;-74
2022/03/14 10:08:59;;;;;;;5.68;2.70;;;;;;;8.46;100.00;97409.22;5027907;28;20306;-72
2022/03/14 10:11:25;;;;;;;4.25;1.77;;;;;;;8.81;100.00;97400.88;5029053;28;20045;-71
2022/03/14 10:13:50;;;;;;;3.22;1.52;;;;;;;8.81;100.00;97408.88;5030140;28;20052;-71
2022/03/14 10:16:16;;;;;;;4.20;1.27;;;;;;;9.19;100.00;97408.84;5027621;28;20030;-73
2022/03/14 10:18:55;;;;;;;3.63;1.40;;;;;;;9.12;100.00;97408.06;5029718;28;20047;-72
2022/03/14 10:21:30;;;;;;;6.40;1.70;;;;;;;9.08;100.00;97412.19;5029326;28;20041;-72
2022/03/14 10:23:59;;;;;;;3.95;1.50;;;;;;;9.08;100.00;97415.66;5029718;28;20036;-74
2022/03/14 10:26:25;;;;;;;7.28;2.17;;;;;;;9.43;100.00;97424.06;5028575;28;20396;-71
2022/03/14 10:28:56;;;;;;;5.57;1.77;;;;;;;9.89;100.00;97422.84;5029836;28;20064;-71
2022/03/14 10:31:33;;;;;;;4.03;1.60;;;;;;;10.22;100.00;97427.03;5027486;28;20049;-75
2022/03/14 10:34:09;;;;;;;4.50;2.00;;;;;;;10.25;100.00;97430.09;5030469;28;20080;-74
2022/03/14 10:36:39;;;;;;;6.38;1.70;;;;;;;10.29;100.00;97433.97;5007461;28;20091;-72
2022/03/14 10:39:19;;;;;;;6.80;2.58;;;;;;;9.29;100.00;97427.84;5028177;28;20095;-74
2022/03/14 10:42:07;;;;;;;8.30;2.95;;;;;;;10.55;100.00;97437.38;5029118;28;20729;-71
2022/03/14 10:44:33;;;;;;;6.05;1.73;;;;;;;13.06;100.00;97416.19;5031614;28;20038;-74
2022/03/14 10:47:05;;;;;;;4.80;2.00;;;;;;;13.57;100.00;97430.56;5033199;28;20035;-73
2022/03/14 10:49:33;;;;;;;5.72;1.75;;;;;;;14.47;100.00;97407.94;5034619;28;20037;-74
2022/03/14 10:52:06;;;;;;;3.97;1.20;;;;;;;13.15;100.00;97435.41;5033371;28;20659;-72
2022/03/14 10:54:35;;;;;;;3.92;1.17;;;;;;;11.84;100.00;97445.84;5032973;28;20128;-72
2022/03/14 10:57:08;;;;;;;5.85;2.15;;;;;;;10.92;100.00;97443.50;5031806;28;20083;-74
2022/03/14 10:59:36;;;;;;;3.90;1.52;;;;;;;11.69;100.00;97454.31;5030395;28;20103;-71
2022/03/14 11:02:04;;;;;;;3.30;1.13;;;;;;;11.01;100.00;97462.75;5032872;28;20328;-71
2022/03/14 11:04:49;;;;;;;2.75;1.10;;;;;;;10.96;100.00;97462.59;5033529;28;20049;-74
2022/03/14 11:07:16;;;;;;;6.22;1.67;;;;;;;11.02;100.00;97462.50;5030334;28;20044;-72
2022/03/14 11:09:44;;;;;;;4.10;1.42;;;;;;;12.07;100.00;97464.66;5031509;28;20037;-71
2022/03/14 11:12:16;;;;;;;7.28;2.10;;;;;;;14.20;100.00;97465.16;5032026;28;20045;-71
2022/03/14 11:14:41;;;;;;;;;;;;;;;15.45;87.30;97454.59;5032738;28;20044;-72
2022/03/14 11:17:17;;;;;;;2.47;1.17;;;;;;;14.53;92.54;97457.31;5030708;28;20209;-71
2022/03/14 11:19:43;;;;;;;2.15;1.20;;;;;;;12.92;100.00;97466.72;5033214;28;20033;-73
2022/03/14 11:22:11;;;;;;;2.95;1.30;;;;;;;12.15;100.00;97469.66;5030615;28;20051;-74
2022/03/14 11:24:43;;;;;;;5.78;1.42;;;;;;;16.18;82.58;97465.72;5031670;28;20120;-71
2022/03/14 11:27:28;;;;;;;5.65;1.83;;;;;;;13.91;94.60;97474.41;5032643;28;20044;-71